Printer, Kentucky
Current Conditions -  °F | °C
As of 8:15 PM on Monday 26 Jan 2015 (Local Time) from KPBX Reporting Station
Overcast Overcast  
Wind Chill: 25°   Ceiling: 700
Heat Index: 25°   Visibility: 10mi
Dew Point: 24°   Wind: 3mph
Humidity: 93%   Direction: 270°W
Pressure: 29.91"   Gusts: NA
Location:  37.53°N, 82.75°W
Report Text: KPBX 270115Z AUTO 27003KT 10SM OVC007 M04/M05 A2991 RMK AO2 T10371047
Loading
Personal Weather Stations






























Interactive Weather Map New forecast layout! Learn more

10-Day Weather Forecast

Advertisements
Track Severe Weather on mobile